Aérodrome :
LOGIN :

S'inscrire | Disclaimer

   EN    FR    IT 

 










Légende :    VFR   VFR Marginal   IFR   IFR Intensif   IFR Très Intensif
Visi : 
Plafond : 
>= 8 km
>= 3000ft
5 à 8 km
1000 à 3000 ft
1500m à 5 km
500 à 1000 ft
800 à 1500m
200 à 500 ft
< 800m
< 200 ft
Symboles :   Orages  Brouillard  Fortes neiges  Fortes précipitations  Vent > 20 kt
SIGMETs :   Divers  Orages  Givrage  Turbulence  Onde Orograph.  Cendres Volcan.






- Altitude de l'aérodrome : 184 ft
- Code IATA : BRU


EBBR - Bruxelles

DERNIER METAR :
  • 240150Z 18002KT 4500 BR SCT005 BKN006 02/01 Q1025 NOSIG

METARs EXPIRÉS :
  • 240120Z 24003KT 4000 BR SCT004 BKN005 02/01 Q1025 BECMG 6000 NSW
  • 240050Z 21002KT 2500 BR SCT003 BKN004 02/01 Q1025 TEMPO 1200 BR BKN002
  • 240020Z 19002KT 2000 BR BCFG BKN003 01/01 Q1026 TEMPO 1200 BR BKN002
  • 232350Z VRB02KT 0700 R25L/1700U R25R/P2000N R01/1500U FG BKN002 01/01 Q1026 NOSIG
  • 232320Z VRB02KT 0400 R25L/1300N R25R/P2000N R01/1500N FG BKN002 01/01 Q1026 TEMPO 0300 FG

TAF TAF EBBR
Valide du 24 à 00h jusqu'au 25 à 06h UTC


232300Z 2400/2506 VRB03KT 2500 BR SCT003 BKN005
TEMPO 2400/2408 1200 BCFG BKN002
PROB40
TEMPO 2400/2407 0500 FG -DZ BKN001
BECMG 2410/2412 6000 NSW SCT006 BKN010
TEMPO 2413/2418 SCT012 BKN016
TEMPO 2420/2506 3500 BR BKN005
PROB30
TEMPO 2421/2506 1200 BCFG BKN003



MET'MAP, la Météo Aéronautique d'un coup d'oeil ! - Copyright ORBIFLY Décembre 2007 - Disclaimer

ORBIFLY MET'MAP TEAM :

Programmation & Développement : Alexandra Zaïnal
Sur une idée originale de : Baudouin d'Aumeries
Assistance à la programmation : Marc-Olivier Méhu
Soutien technique & logistique : Manuel Goepfert

Contact : metmap@orbifly.com




SOURCES & CREDITS :

   NOAA